Terminal Aerodrome Forecast
Issued by NWS Central Illinois

Home | Current Version | Previous Version | Text Only | Print | Product List | Glossary On
Versions: 1 2 3 4 5 6 7 8 9 10 11 12 13 14 15 16
000
FTUS43 KILX 010520
TAFPIA
TAF
KPIA 010520Z 0106/0206 VRB03KT P6SM VCSH BKN120
     FM011100 19004KT P6SM -SHRA OVC090
     FM011600 25005KT P6SM -SHRA BKN090
      TEMPO 0116/0118 3SM TSRA BKN040CB
     FM011800 26007KT P6SM VCSH BKN080
     FM012100 28008KT P6SM VCSH SCT150
     FM020000 29005KT P6SM SCT250=

USA.gov is the U.S. government's official web portal to all federal, state and local government web resources and services.